sensor_id;sensor_type;location;lat;lon;timestamp;pressure;altitude;pressure_sealevel;temperature
27826;BMP280;15077;49.704;9.908;2023-02-15T00:01:44;99629.31;;;6.82
27826;BMP280;15077;49.704;9.908;2023-02-15T00:04:17;99621.75;;;6.80
27826;BMP280;15077;49.704;9.908;2023-02-15T00:06:44;99621.75;;;6.79
27826;BMP280;15077;49.704;9.908;2023-02-15T00:09:11;99622.59;;;6.76
27826;BMP280;15077;49.704;9.908;2023-02-15T00:11:37;99620.91;;;6.75
27826;BMP280;15077;49.704;9.908;2023-02-15T00:14:14;99627.63;;;6.76
27826;BMP280;15077;49.704;9.908;2023-02-15T00:16:43;99620.91;;;6.75
27826;BMP280;15077;49.704;9.908;2023-02-15T00:19:10;99617.53;;;6.75
27826;BMP280;15077;49.704;9.908;2023-02-15T00:21:38;99622.59;;;6.76
27826;BMP280;15077;49.704;9.908;2023-02-15T00:24:07;99622.59;;;6.76
27826;BMP280;15077;49.704;9.908;2023-02-15T00:26:34;99615.03;;;6.75
27826;BMP280;15077;49.704;9.908;2023-02-15T00:29:00;99615.03;;;6.74
27826;BMP280;15077;49.704;9.908;2023-02-15T00:31:27;99614.22;;;6.73
27826;BMP280;15077;49.704;9.908;2023-02-15T00:34:00;99610.81;;;6.73
27826;BMP280;15077;49.704;9.908;2023-02-15T00:36:26;99610.00;;;6.72
27826;BMP280;15077;49.704;9.908;2023-02-15T00:38:51;99606.66;;;6.70
27826;BMP280;15077;49.704;9.908;2023-02-15T00:41:17;99611.69;;;6.69
27826;BMP280;15077;49.704;9.908;2023-02-15T00:43:43;99607.50;;;6.66
27826;BMP280;15077;49.704;9.908;2023-02-15T00:46:08;99605.78;;;6.65
27826;BMP280;15077;49.704;9.908;2023-02-15T00:48:34;99598.25;;;6.64
27826;BMP280;15077;49.704;9.908;2023-02-15T00:51:00;99604.13;;;6.64
27826;BMP280;15077;49.704;9.908;2023-02-15T00:53:27;99606.66;;;6.63
27826;BMP280;15077;49.704;9.908;2023-02-15T00:55:55;99605.81;;;6.64
27826;BMP280;15077;49.704;9.908;2023-02-15T00:58:21;99601.63;;;6.60
27826;BMP280;15077;49.704;9.908;2023-02-15T01:00:47;99612.53;;;6.59
27826;BMP280;15077;49.704;9.908;2023-02-15T01:03:16;99600.78;;;6.59
27826;BMP280;15077;49.704;9.908;2023-02-15T01:05:43;99612.53;;;6.59
27826;BMP280;15077;49.704;9.908;2023-02-15T01:08:09;99602.47;;;6.57
27826;BMP280;15077;49.704;9.908;2023-02-15T01:10:36;99606.66;;;6.57
27826;BMP280;15077;49.704;9.908;2023-02-15T01:13:02;99609.19;;;6.54
27826;BMP280;15077;49.704;9.908;2023-02-15T01:15:28;99594.91;;;6.53
27826;BMP280;15077;49.704;9.908;2023-02-15T01:17:55;99590.69;;;6.53
27826;BMP280;15077;49.704;9.908;2023-02-15T01:20:27;99589.88;;;6.53
27826;BMP280;15077;49.704;9.908;2023-02-15T01:22:53;99597.44;;;6.42
27826;BMP280;15077;49.704;9.908;2023-02-15T01:25:23;99599.09;;;6.43
27826;BMP280;15077;49.704;9.908;2023-02-15T01:27:49;99589.03;;;6.39
27826;BMP280;15077;49.704;9.908;2023-02-15T01:30:16;99594.06;;;6.37
27826;BMP280;15077;49.704;9.908;2023-02-15T01:32:43;99592.41;;;6.35
27826;BMP280;15077;49.704;9.908;2023-02-15T01:35:10;99590.72;;;6.32
27826;BMP280;15077;49.704;9.908;2023-02-15T01:37:36;99585.69;;;6.31
27826;BMP280;15077;49.704;9.908;2023-02-15T01:40:07;99584.88;;;6.29
27826;BMP280;15077;49.704;9.908;2023-02-15T01:42:34;99584.00;;;6.27
27826;BMP280;15077;49.704;9.908;2023-02-15T01:47:46;99574.78;;;6.23
27826;BMP280;15077;49.704;9.908;2023-02-15T01:55:55;99566.38;;;6.21
27826;BMP280;15077;49.704;9.908;2023-02-15T01:58:26;99570.59;;;6.24
27826;BMP280;15077;49.704;9.908;2023-02-15T02:00:56;99562.19;;;6.26
27826;BMP280;15077;49.704;9.908;2023-02-15T02:03:49;99570.59;;;6.27
27826;BMP280;15077;49.704;9.908;2023-02-15T02:06:20;99569.75;;;6.29
27826;BMP280;15077;49.704;9.908;2023-02-15T02:08:47;99567.22;;;6.30
27826;BMP280;15077;49.704;9.908;2023-02-15T02:11:15;99559.69;;;6.33
27826;BMP280;15077;49.704;9.908;2023-02-15T02:13:43;99550.44;;;6.35
27826;BMP280;15077;49.704;9.908;2023-02-15T02:16:24;99557.97;;;6.37
27826;BMP280;15077;49.704;9.908;2023-02-15T02:27:46;99551.25;;;6.30
27826;BMP280;15077;49.704;9.908;2023-02-15T02:47:41;99565.53;;;6.40
27826;BMP280;15077;49.704;9.908;2023-02-15T02:50:16;99561.31;;;6.42
27826;BMP280;15077;49.704;9.908;2023-02-15T02:52:48;99553.75;;;6.43
27826;BMP280;15077;49.704;9.908;2023-02-15T02:55:30;99547.91;;;6.40
27826;BMP280;15077;49.704;9.908;2023-02-15T03:01:06;99542.06;;;6.28
27826;BMP280;15077;49.704;9.908;2023-02-15T03:03:58;99542.88;;;6.21
27826;BMP280;15077;49.704;9.908;2023-02-15T03:06:56;99541.22;;;6.15
27826;BMP280;15077;49.704;9.908;2023-02-15T03:09:29;99533.66;;;6.14
27826;BMP280;15077;49.704;9.908;2023-02-15T03:12:01;99537.88;;;6.09
27826;BMP280;15077;49.704;9.908;2023-02-15T03:14:29;99536.19;;;6.06
27826;BMP280;15077;49.704;9.908;2023-02-15T03:16:57;99538.69;;;6.05
27826;BMP280;15077;49.704;9.908;2023-02-15T03:19:30;99530.31;;;6.04
27826;BMP280;15077;49.704;9.908;2023-02-15T03:22:05;99538.69;;;6.05
27826;BMP280;15077;49.704;9.908;2023-02-15T03:24:43;99530.31;;;6.06
27826;BMP280;15077;49.704;9.908;2023-02-15T03:27:17;99532.00;;;6.04
27826;BMP280;15077;49.704;9.908;2023-02-15T03:29:50;99524.44;;;6.05
27826;BMP280;15077;49.704;9.908;2023-02-15T03:32:18;99522.75;;;6.01
27826;BMP280;15077;49.704;9.908;2023-02-15T03:34:44;99520.25;;;6.00
27826;BMP280;15077;49.704;9.908;2023-02-15T03:37:39;99519.41;;;5.99
27826;BMP280;15077;49.704;9.908;2023-02-15T03:40:29;99516.03;;;5.94
27826;BMP280;15077;49.704;9.908;2023-02-15T03:43:53;99501.78;;;5.90
27826;BMP280;15077;49.704;9.908;2023-02-15T03:46:50;99508.50;;;5.87
27826;BMP280;15077;49.704;9.908;2023-02-15T03:49:28;99504.28;;;5.87
27826;BMP280;15077;49.704;9.908;2023-02-15T03:51:58;99505.97;;;5.88
27826;BMP280;15077;49.704;9.908;2023-02-15T03:54:31;99500.13;;;5.88
27826;BMP280;15077;49.704;9.908;2023-02-15T03:57:24;99505.97;;;5.85
27826;BMP280;15077;49.704;9.908;2023-02-15T04:00:18;99502.63;;;5.80
27826;BMP280;15077;49.704;9.908;2023-02-15T04:05:38;99510.97;;;5.72
27826;BMP280;15077;49.704;9.908;2023-02-15T04:08:05;99505.13;;;5.72
27826;BMP280;15077;49.704;9.908;2023-02-15T04:10:31;99506.78;;;5.71
27826;BMP280;15077;49.704;9.908;2023-02-15T04:13:15;99505.13;;;5.66
27826;BMP280;15077;49.704;9.908;2023-02-15T04:15:41;99503.44;;;5.65
27826;BMP280;15077;49.704;9.908;2023-02-15T04:18:25;99506.75;;;5.64
27826;BMP280;15077;49.704;9.908;2023-02-15T04:21:09;99493.38;;;5.63
27826;BMP280;15077;49.704;9.908;2023-02-15T04:23:54;99496.69;;;5.61
27826;BMP280;15077;49.704;9.908;2023-02-15T04:26:38;99495.03;;;5.58
27826;BMP280;15077;49.704;9.908;2023-02-15T04:29:04;99503.41;;;5.57
27826;BMP280;15077;49.704;9.908;2023-02-15T04:31:29;99503.41;;;5.57
27826;BMP280;15077;49.704;9.908;2023-02-15T04:33:55;99496.69;;;5.58
27826;BMP280;15077;49.704;9.908;2023-02-15T04:36:21;99494.19;;;5.58
27826;BMP280;15077;49.704;9.908;2023-02-15T04:38:47;99501.72;;;5.56
27826;BMP280;15077;49.704;9.908;2023-02-15T04:41:13;99501.72;;;5.55
27826;BMP280;15077;49.704;9.908;2023-02-15T04:43:39;99505.94;;;5.51
27826;BMP280;15077;49.704;9.908;2023-02-15T04:46:07;99504.25;;;5.52
27826;BMP280;15077;49.704;9.908;2023-02-15T04:48:36;99503.41;;;5.54
27826;BMP280;15077;49.704;9.908;2023-02-15T04:51:07;99506.75;;;5.58
27826;BMP280;15077;49.704;9.908;2023-02-15T04:53:33;99502.59;;;5.60
27826;BMP280;15077;49.704;9.908;2023-02-15T04:55:59;99490.03;;;5.63
27826;BMP280;15077;49.704;9.908;2023-02-15T04:58:25;99492.53;;;5.63
27826;BMP280;15077;49.704;9.908;2023-02-15T05:00:55;99495.06;;;5.66
27826;BMP280;15077;49.704;9.908;2023-02-15T05:03:24;99497.56;;;5.66
27826;BMP280;15077;49.704;9.908;2023-02-15T05:05:51;99490.84;;;5.65
27826;BMP280;15077;49.704;9.908;2023-02-15T05:08:17;99478.28;;;5.66
27826;BMP280;15077;49.704;9.908;2023-02-15T05:10:42;99491.69;;;5.67
27826;BMP280;15077;49.704;9.908;2023-02-15T05:13:08;99485.81;;;5.68
27826;BMP280;15077;49.704;9.908;2023-02-15T05:15:34;99488.34;;;5.69
27826;BMP280;15077;49.704;9.908;2023-02-15T05:18:00;99481.63;;;5.71
27826;BMP280;15077;49.704;9.908;2023-02-15T05:20:27;99485.81;;;5.71
27826;BMP280;15077;49.704;9.908;2023-02-15T05:22:56;99486.66;;;5.70
27826;BMP280;15077;49.704;9.908;2023-02-15T05:25:21;99489.16;;;5.65
27826;BMP280;15077;49.704;9.908;2023-02-15T05:28:11;99481.59;;;5.61
27826;BMP280;15077;49.704;9.908;2023-02-15T05:30:48;99485.81;;;5.59
27826;BMP280;15077;49.704;9.908;2023-02-15T05:33:14;99490.84;;;5.57
27826;BMP280;15077;49.704;9.908;2023-02-15T05:35:40;99492.53;;;5.54
27826;BMP280;15077;49.704;9.908;2023-02-15T05:38:05;99499.19;;;5.47
27826;BMP280;15077;49.704;9.908;2023-02-15T05:40:31;99501.72;;;5.44
27826;BMP280;15077;49.704;9.908;2023-02-15T05:42:57;99499.19;;;5.43
27826;BMP280;15077;49.704;9.908;2023-02-15T05:45:23;99502.53;;;5.42
27826;BMP280;15077;49.704;9.908;2023-02-15T05:47:49;99489.97;;;5.36
27826;BMP280;15077;49.704;9.908;2023-02-15T05:50:15;99489.13;;;5.34
27826;BMP280;15077;49.704;9.908;2023-02-15T05:52:41;99490.81;;;5.35
27826;BMP280;15077;49.704;9.908;2023-02-15T05:55:07;99493.34;;;5.36
27826;BMP280;15077;49.704;9.908;2023-02-15T05:57:35;99504.22;;;5.37
27826;BMP280;15077;49.704;9.908;2023-02-15T06:00:03;99505.06;;;5.39
27826;BMP280;15077;49.704;9.908;2023-02-15T06:02:33;99501.72;;;5.38
27826;BMP280;15077;49.704;9.908;2023-02-15T06:04:59;99499.19;;;5.40
27826;BMP280;15077;49.704;9.908;2023-02-15T06:07:25;99500.88;;;5.41
27826;BMP280;15077;49.704;9.908;2023-02-15T06:09:51;99500.88;;;5.44
27826;BMP280;15077;49.704;9.908;2023-02-15T06:12:16;99500.03;;;5.48
27826;BMP280;15077;49.704;9.908;2023-02-15T06:14:42;99499.22;;;5.52
27826;BMP280;15077;49.704;9.908;2023-02-15T06:17:08;99500.06;;;5.54
27826;BMP280;15077;49.704;9.908;2023-02-15T06:19:33;99501.72;;;5.53
27826;BMP280;15077;49.704;9.908;2023-02-15T06:21:59;99499.22;;;5.52
27826;BMP280;15077;49.704;9.908;2023-02-15T06:24:25;99495.00;;;5.45
27826;BMP280;15077;49.704;9.908;2023-02-15T06:26:51;99507.56;;;5.39
27826;BMP280;15077;49.704;9.908;2023-02-15T06:29:16;99504.22;;;5.34
27826;BMP280;15077;49.704;9.908;2023-02-15T06:31:42;99499.19;;;5.31
27826;BMP280;15077;49.704;9.908;2023-02-15T06:34:08;99502.50;;;5.28
27826;BMP280;15077;49.704;9.908;2023-02-15T06:36:34;99513.44;;;5.28
27826;BMP280;15077;49.704;9.908;2023-02-15T06:39:00;99513.44;;;5.26
27826;BMP280;15077;49.704;9.908;2023-02-15T06:41:27;99515.94;;;5.26
27826;BMP280;15077;49.704;9.908;2023-02-15T06:43:53;99519.28;;;5.28
27826;BMP280;15077;49.704;9.908;2023-02-15T06:46:18;99515.94;;;5.28
27826;BMP280;15077;49.704;9.908;2023-02-15T06:48:44;99514.25;;;5.29
27826;BMP280;15077;49.704;9.908;2023-02-15T06:51:10;99515.09;;;5.28
27826;BMP280;15077;49.704;9.908;2023-02-15T06:53:36;99505.03;;;5.28
27826;BMP280;15077;49.704;9.908;2023-02-15T06:56:04;99504.19;;;5.28
27826;BMP280;15077;49.704;9.908;2023-02-15T06:58:33;99500.00;;;5.27
27826;BMP280;15077;49.704;9.908;2023-02-15T07:00:59;99513.41;;;5.25
27826;BMP280;15077;49.704;9.908;2023-02-15T07:03:24;99509.22;;;5.22
27826;BMP280;15077;49.704;9.908;2023-02-15T07:05:58;99515.94;;;5.22
27826;BMP280;15077;49.704;9.908;2023-02-15T07:08:25;99505.88;;;5.20
27826;BMP280;15077;49.704;9.908;2023-02-15T07:10:53;99504.19;;;5.22
27826;BMP280;15077;49.704;9.908;2023-02-15T07:13:20;99511.72;;;5.22
27826;BMP280;15077;49.704;9.908;2023-02-15T07:15:47;99505.00;;;5.23
27826;BMP280;15077;49.704;9.908;2023-02-15T07:18:13;99511.72;;;5.24
27826;BMP280;15077;49.704;9.908;2023-02-15T07:20:39;99505.03;;;5.26
27826;BMP280;15077;49.704;9.908;2023-02-15T07:23:08;99510.91;;;5.26
27826;BMP280;15077;49.704;9.908;2023-02-15T07:25:34;99504.19;;;5.25
27826;BMP280;15077;49.704;9.908;2023-02-15T07:28:02;99512.56;;;5.26
27826;BMP280;15077;49.704;9.908;2023-02-15T07:30:29;99509.22;;;5.25
27826;BMP280;15077;49.704;9.908;2023-02-15T07:32:56;99503.38;;;5.23
27826;BMP280;15077;49.704;9.908;2023-02-15T07:35:51;99509.22;;;5.22
27826;BMP280;15077;49.704;9.908;2023-02-15T07:38:17;99507.53;;;5.21
27826;BMP280;15077;49.704;9.908;2023-02-15T07:40:44;99512.56;;;5.21
27826;BMP280;15077;49.704;9.908;2023-02-15T07:43:11;99515.94;;;5.23
27826;BMP280;15077;49.704;9.908;2023-02-15T07:45:37;99522.63;;;5.24
27826;BMP280;15077;49.704;9.908;2023-02-15T07:48:04;99518.44;;;5.25
27826;BMP280;15077;49.704;9.908;2023-02-15T07:50:30;99525.13;;;5.24
27826;BMP280;15077;49.704;9.908;2023-02-15T07:52:56;99521.78;;;5.25
27826;BMP280;15077;49.704;9.908;2023-02-15T07:55:22;99521.78;;;5.25
27826;BMP280;15077;49.704;9.908;2023-02-15T07:57:49;99520.09;;;5.26
27826;BMP280;15077;49.704;9.908;2023-02-15T08:00:19;99526.81;;;5.22
27826;BMP280;15077;49.704;9.908;2023-02-15T08:02:52;99519.28;;;5.22
27826;BMP280;15077;49.704;9.908;2023-02-15T08:05:40;99517.56;;;5.21
27826;BMP280;15077;49.704;9.908;2023-02-15T08:08:07;99514.25;;;5.21
27826;BMP280;15077;49.704;9.908;2023-02-15T08:10:35;99505.88;;;5.20
27826;BMP280;15077;49.704;9.908;2023-02-15T08:13:19;99510.88;;;5.17
27826;BMP280;15077;49.704;9.908;2023-02-15T08:15:49;99503.34;;;5.16
27826;BMP280;15077;49.704;9.908;2023-02-15T08:18:15;99502.47;;;5.11
27826;BMP280;15077;49.704;9.908;2023-02-15T08:20:41;99503.31;;;5.10
27826;BMP280;15077;49.704;9.908;2023-02-15T08:23:07;99499.13;;;5.10
27826;BMP280;15077;49.704;9.908;2023-02-15T08:25:32;99502.47;;;5.09
27826;BMP280;15077;49.704;9.908;2023-02-15T08:27:58;99502.47;;;5.09
27826;BMP280;15077;49.704;9.908;2023-02-15T08:30:24;99506.66;;;5.09
27826;BMP280;15077;49.704;9.908;2023-02-15T08:32:49;99499.13;;;5.10
27826;BMP280;15077;49.704;9.908;2023-02-15T08:35:15;99499.13;;;5.10
27826;BMP280;15077;49.704;9.908;2023-02-15T08:37:41;99502.47;;;5.15
27826;BMP280;15077;49.704;9.908;2023-02-15T08:40:07;99499.97;;;5.18
27826;BMP280;15077;49.704;9.908;2023-02-15T08:42:34;99489.94;;;5.21
27826;BMP280;15077;49.704;9.908;2023-02-15T08:44:59;99494.97;;;5.23
27826;BMP280;15077;49.704;9.908;2023-02-15T08:47:25;99501.69;;;5.22
27826;BMP280;15077;49.704;9.908;2023-02-15T08:49:51;99505.00;;;5.21
27826;BMP280;15077;49.704;9.908;2023-02-15T08:52:17;99506.69;;;5.22
27826;BMP280;15077;49.704;9.908;2023-02-15T08:54:43;99498.34;;;5.23
27826;BMP280;15077;49.704;9.908;2023-02-15T08:57:09;99498.34;;;5.22
27826;BMP280;15077;49.704;9.908;2023-02-15T08:59:36;99495.81;;;5.22
27826;BMP280;15077;49.704;9.908;2023-02-15T09:02:02;99491.63;;;5.21
27826;BMP280;15077;49.704;9.908;2023-02-15T09:04:28;99501.66;;;5.21
27826;BMP280;15077;49.704;9.908;2023-02-15T09:06:54;99503.34;;;5.22
27826;BMP280;15077;49.704;9.908;2023-02-15T09:09:21;99506.72;;;5.24
27826;BMP280;15077;49.704;9.908;2023-02-15T09:11:50;99514.25;;;5.25
27826;BMP280;15077;49.704;9.908;2023-02-15T09:14:19;99512.56;;;5.27
27826;BMP280;15077;49.704;9.908;2023-02-15T09:16:46;99523.47;;;5.25
27826;BMP280;15077;49.704;9.908;2023-02-15T09:19:15;99519.28;;;5.21
27826;BMP280;15077;49.704;9.908;2023-02-15T09:21:41;99511.72;;;5.16
27826;BMP280;15077;49.704;9.908;2023-02-15T09:24:13;99510.88;;;5.13
27826;BMP280;15077;49.704;9.908;2023-02-15T09:26:42;99493.22;;;5.04
27826;BMP280;15077;49.704;9.908;2023-02-15T09:29:10;99492.41;;;5.09
27826;BMP280;15077;49.704;9.908;2023-02-15T09:31:43;99492.41;;;5.12
27826;BMP280;15077;49.704;9.908;2023-02-15T09:34:11;99485.75;;;5.14
27826;BMP280;15077;49.704;9.908;2023-02-15T09:36:39;99488.25;;;5.17
27826;BMP280;15077;49.704;9.908;2023-02-15T09:39:22;99475.69;;;5.14
27826;BMP280;15077;49.704;9.908;2023-02-15T09:51:31;99480.72;;;5.14
27826;BMP280;15077;49.704;9.908;2023-02-15T09:54:57;99484.91;;;5.17
27826;BMP280;15077;49.704;9.908;2023-02-15T10:09:26;99484.91;;;5.20
27826;BMP280;15077;49.704;9.908;2023-02-15T10:18:51;99478.22;;;5.22
27826;BMP280;15077;49.704;9.908;2023-02-15T10:27:34;99454.75;;;5.30
27826;BMP280;15077;49.704;9.908;2023-02-15T10:33:02;99449.72;;;5.27
27826;BMP280;15077;49.704;9.908;2023-02-15T10:38:45;99453.94;;;5.37
27826;BMP280;15077;49.704;9.908;2023-02-15T10:41:38;99457.28;;;5.39
27826;BMP280;15077;49.704;9.908;2023-02-15T10:44:45;99445.56;;;5.44
27826;BMP280;15077;49.704;9.908;2023-02-15T10:59:22;99445.56;;;5.44
27826;BMP280;15077;49.704;9.908;2023-02-15T11:07:27;99462.31;;;5.48
27826;BMP280;15077;49.704;9.908;2023-02-15T11:10:19;99462.34;;;5.54
27826;BMP280;15077;49.704;9.908;2023-02-15T11:12:48;99449.78;;;5.58
27826;BMP280;15077;49.704;9.908;2023-02-15T11:15:29;99453.94;;;5.64
27826;BMP280;15077;49.704;9.908;2023-02-15T11:21:02;99445.56;;;5.68
27826;BMP280;15077;49.704;9.908;2023-02-15T11:23:32;99441.38;;;5.73
27826;BMP280;15077;49.704;9.908;2023-02-15T11:26:21;99436.38;;;5.76
27826;BMP280;15077;49.704;9.908;2023-02-15T11:29:06;99439.72;;;5.80
27826;BMP280;15077;49.704;9.908;2023-02-15T11:31:51;99438.03;;;5.85
27826;BMP280;15077;49.704;9.908;2023-02-15T11:34:38;99438.88;;;5.89
27826;BMP280;15077;49.704;9.908;2023-02-15T11:37:20;99431.31;;;5.92
27826;BMP280;15077;49.704;9.908;2023-02-15T11:39:47;99438.84;;;5.98
27826;BMP280;15077;49.704;9.908;2023-02-15T11:42:22;99437.19;;;6.04
27826;BMP280;15077;49.704;9.908;2023-02-15T11:47:43;99433.81;;;6.14
27826;BMP280;15077;49.704;9.908;2023-02-15T11:50:26;99426.25;;;6.19
27826;BMP280;15077;49.704;9.908;2023-02-15T11:53:02;99418.69;;;6.23
27826;BMP280;15077;49.704;9.908;2023-02-15T11:55:30;99422.84;;;6.27
27826;BMP280;15077;49.704;9.908;2023-02-15T12:00:56;99405.22;;;6.31
27826;BMP280;15077;49.704;9.908;2023-02-15T12:03:43;99413.63;;;6.33
27826;BMP280;15077;49.704;9.908;2023-02-15T12:06:27;99404.34;;;6.37
27826;BMP280;15077;49.704;9.908;2023-02-15T12:14:54;99406.81;;;6.49
27826;BMP280;15077;49.704;9.908;2023-02-15T12:17:24;99413.53;;;6.53
27826;BMP280;15077;49.704;9.908;2023-02-15T12:19:56;99415.22;;;6.57
27826;BMP280;15077;49.704;9.908;2023-02-15T12:22:30;99409.31;;;6.59
27826;BMP280;15077;49.704;9.908;2023-02-15T12:25:01;99410.16;;;6.61
27826;BMP280;15077;49.704;9.908;2023-02-15T12:27:34;99410.97;;;6.63
27826;BMP280;15077;49.704;9.908;2023-02-15T12:33:13;99408.44;;;6.65
27826;BMP280;15077;49.704;9.908;2023-02-15T12:35:40;99391.63;;;6.67
27826;BMP280;15077;49.704;9.908;2023-02-15T12:38:23;99391.63;;;6.70
27826;BMP280;15077;49.704;9.908;2023-02-15T12:41:19;99398.31;;;6.75
27826;BMP280;15077;49.704;9.908;2023-02-15T12:43:46;99398.28;;;6.79
27826;BMP280;15077;49.704;9.908;2023-02-15T12:46:23;99394.06;;;6.83
27826;BMP280;15077;49.704;9.908;2023-02-15T12:51:56;99389.84;;;6.89
27826;BMP280;15077;49.704;9.908;2023-02-15T12:56:48;99394.81;;;6.98
27826;BMP280;15077;49.704;9.908;2023-02-15T12:59:14;99391.44;;;7.02
27826;BMP280;15077;49.704;9.908;2023-02-15T13:01:47;99380.47;;;7.06
27826;BMP280;15077;49.704;9.908;2023-02-15T13:04:27;99379.63;;;7.10
27826;BMP280;15077;49.704;9.908;2023-02-15T13:07:01;99360.25;;;7.14
27826;BMP280;15077;49.704;9.908;2023-02-15T13:12:20;99357.69;;;7.20
27826;BMP280;15077;49.704;9.908;2023-02-15T13:14:49;99356.00;;;7.23
27826;BMP280;15077;49.704;9.908;2023-02-15T13:17:30;99352.59;;;7.24
27826;BMP280;15077;49.704;9.908;2023-02-15T13:20:18;99350.94;;;7.26
27826;BMP280;15077;49.704;9.908;2023-02-15T13:22:48;99343.34;;;7.27
27826;BMP280;15077;49.704;9.908;2023-02-15T13:25:25;99334.91;;;7.30
27826;BMP280;15077;49.704;9.908;2023-02-15T13:28:00;99340.75;;;7.35
27826;BMP280;15077;49.704;9.908;2023-02-15T13:30:38;99342.41;;;7.42
27826;BMP280;15077;49.704;9.908;2023-02-15T13:33:12;99336.44;;;7.47
27826;BMP280;15077;49.704;9.908;2023-02-15T13:36:01;99337.25;;;7.54
27826;BMP280;15077;49.704;9.908;2023-02-15T13:42:19;99325.38;;;7.62
27826;BMP280;15077;49.704;9.908;2023-02-15T13:52:08;99316.88;;;7.72
27826;BMP280;15077;49.704;9.908;2023-02-15T13:55:06;99319.31;;;7.80
27826;BMP280;15077;49.704;9.908;2023-02-15T14:07:10;99303.81;;;8.13
27826;BMP280;15077;49.704;9.908;2023-02-15T14:15:35;99298.47;;;8.35
27826;BMP280;15077;49.704;9.908;2023-02-15T14:21:15;99287.41;;;8.44
27826;BMP280;15077;49.704;9.908;2023-02-15T14:26:55;99282.56;;;8.29
27826;BMP280;15077;49.704;9.908;2023-02-15T14:29:41;99285.84;;;8.34
27826;BMP280;15077;49.704;9.908;2023-02-15T14:32:52;99289.16;;;8.39
27826;BMP280;15077;49.704;9.908;2023-02-15T14:35:21;99283.19;;;8.43
27826;BMP280;15077;49.704;9.908;2023-02-15T14:41:18;99276.38;;;8.49
27826;BMP280;15077;49.704;9.908;2023-02-15T14:49:53;99275.28;;;8.67
27826;BMP280;15077;49.704;9.908;2023-02-15T14:52:11;99286.16;;;8.73
27826;BMP280;15077;49.704;9.908;2023-02-15T14:59:54;99280.81;;;8.91
27826;BMP280;15077;49.704;9.908;2023-02-15T15:02:44;99283.28;;;8.95
27826;BMP280;15077;49.704;9.908;2023-02-15T15:05:19;99281.50;;;9.00
27826;BMP280;15077;49.704;9.908;2023-02-15T15:07:57;99284.81;;;9.05
27826;BMP280;15077;49.704;9.908;2023-02-15T15:10:37;99287.28;;;9.08
27826;BMP280;15077;49.704;9.908;2023-02-15T15:19:01;99279.66;;;9.11
27826;BMP280;15077;49.704;9.908;2023-02-15T15:35:49;99261.75;;;9.21
27826;BMP280;15077;49.704;9.908;2023-02-15T15:50:19;99255.88;;;9.19
27826;BMP280;15077;49.704;9.908;2023-02-15T15:52:58;99251.66;;;9.20
27826;BMP280;15077;49.704;9.908;2023-02-15T15:55:28;99259.19;;;9.23
27826;BMP280;15077;49.704;9.908;2023-02-15T15:58:04;99252.47;;;9.22
27826;BMP280;15077;49.704;9.908;2023-02-15T16:00:49;99253.31;;;9.21
27826;BMP280;15077;49.704;9.908;2023-02-15T16:03:25;99253.31;;;9.22
27826;BMP280;15077;49.704;9.908;2023-02-15T16:05:52;99250.78;;;9.21
27826;BMP280;15077;49.704;9.908;2023-02-15T16:08:35;99255.03;;;9.19
27826;BMP280;15077;49.704;9.908;2023-02-15T16:11:18;99257.59;;;9.18
27826;BMP280;15077;49.704;9.908;2023-02-15T16:13:44;99263.50;;;9.17
27826;BMP280;15077;49.704;9.908;2023-02-15T16:16:13;99258.47;;;9.15
27826;BMP280;15077;49.704;9.908;2023-02-15T16:18:46;99255.16;;;9.13
27826;BMP280;15077;49.704;9.908;2023-02-15T16:21:21;99266.16;;;9.09
27826;BMP280;15077;49.704;9.908;2023-02-15T16:24:22;99271.34;;;9.02
27826;BMP280;15077;49.704;9.908;2023-02-15T16:30:35;99265.69;;;8.88
27826;BMP280;15077;49.704;9.908;2023-02-15T16:33:16;99262.34;;;8.86
27826;BMP280;15077;49.704;9.908;2023-02-15T16:35:59;99254.84;;;8.81
27826;BMP280;15077;49.704;9.908;2023-02-15T16:41:25;99266.69;;;8.76
27826;BMP280;15077;49.704;9.908;2023-02-15T16:43:55;99260.91;;;8.71
27826;BMP280;15077;49.704;9.908;2023-02-15T16:46:32;99258.41;;;8.69
27826;BMP280;15077;49.704;9.908;2023-02-15T16:49:23;99259.31;;;8.63
27826;BMP280;15077;49.704;9.908;2023-02-15T16:52:03;99265.28;;;8.59
27826;BMP280;15077;49.704;9.908;2023-02-15T16:54:32;99255.22;;;8.55
27826;BMP280;15077;49.704;9.908;2023-02-15T16:56:59;99252.75;;;8.52
27826;BMP280;15077;49.704;9.908;2023-02-15T16:59:45;99252.81;;;8.47
27826;BMP280;15077;49.704;9.908;2023-02-15T17:02:24;99254.53;;;8.45
27826;BMP280;15077;49.704;9.908;2023-02-15T17:10:33;99264.88;;;8.29
27826;BMP280;15077;49.704;9.908;2023-02-15T17:13:12;99270.81;;;8.25
27826;BMP280;15077;49.704;9.908;2023-02-15T17:15:46;99267.53;;;8.20
27826;BMP280;15077;49.704;9.908;2023-02-15T17:18:34;99275.16;;;8.16
27826;BMP280;15077;49.704;9.908;2023-02-15T17:21:19;99252.47;;;8.11
27826;BMP280;15077;49.704;9.908;2023-02-15T17:23:49;99260.91;;;8.07
27826;BMP280;15077;49.704;9.908;2023-02-15T17:26:20;99264.31;;;8.05
27826;BMP280;15077;49.704;9.908;2023-02-15T17:29:20;99267.81;;;7.96
27826;BMP280;15077;49.704;9.908;2023-02-15T17:31:50;99267.81;;;7.96
27826;BMP280;15077;49.704;9.908;2023-02-15T17:37:43;99281.38;;;7.86
27826;BMP280;15077;49.704;9.908;2023-02-15T17:42:43;99282.25;;;7.81
27826;BMP280;15077;49.704;9.908;2023-02-15T17:45:09;99276.44;;;7.77
27826;BMP280;15077;49.704;9.908;2023-02-15T17:47:35;99280.63;;;7.75
27826;BMP280;15077;49.704;9.908;2023-02-15T17:50:04;99284.88;;;7.73
27826;BMP280;15077;49.704;9.908;2023-02-15T17:52:31;99280.66;;;7.72
27826;BMP280;15077;49.704;9.908;2023-02-15T17:54:57;99279.91;;;7.66
27826;BMP280;15077;49.704;9.908;2023-02-15T17:57:41;99289.22;;;7.61
27826;BMP280;15077;49.704;9.908;2023-02-15T18:00:12;99286.75;;;7.57
27826;BMP280;15077;49.704;9.908;2023-02-15T18:02:57;99290.16;;;7.51
27826;BMP280;15077;49.704;9.908;2023-02-15T18:05:41;99293.56;;;7.46
27826;BMP280;15077;49.704;9.908;2023-02-15T18:08:27;99294.47;;;7.42
27826;BMP280;15077;49.704;9.908;2023-02-15T18:11:12;99286.09;;;7.35
27826;BMP280;15077;49.704;9.908;2023-02-15T18:13:57;99283.63;;;7.31
27826;BMP280;15077;49.704;9.908;2023-02-15T18:16:30;99281.13;;;7.29
27826;BMP280;15077;49.704;9.908;2023-02-15T18:18:57;99277.78;;;7.27
27826;BMP280;15077;49.704;9.908;2023-02-15T18:21:23;99288.72;;;7.25
27826;BMP280;15077;49.704;9.908;2023-02-15T18:23:49;99284.50;;;7.24
27826;BMP280;15077;49.704;9.908;2023-02-15T18:26:24;99279.50;;;7.22
27826;BMP280;15077;49.704;9.908;2023-02-15T18:28:51;99287.94;;;7.20
27826;BMP280;15077;49.704;9.908;2023-02-15T18:31:17;99281.22;;;7.18
27826;BMP280;15077;49.704;9.908;2023-02-15T18:33:48;99276.19;;;7.16